createdAt,value
2022-08-19T00:00:16.124Z,7.40
2022-08-19T00:02:50.434Z,7.80
2022-08-19T00:05:20.653Z,8.50
2022-08-19T00:07:50.293Z,7.50
2022-08-19T00:10:19.746Z,8.50
2022-08-19T00:12:48.728Z,8.80
2022-08-19T00:15:20.823Z,8.40
2022-08-19T00:17:49.903Z,7.90
2022-08-19T00:20:20.744Z,8.30
2022-08-19T00:22:49.336Z,7.80
2022-08-19T00:25:18.676Z,8.30
2022-08-19T00:27:59.695Z,8.50
2022-08-19T00:30:28.334Z,7.90
2022-08-19T00:32:57.040Z,7.80
2022-08-19T00:35:27.574Z,7.50
2022-08-19T00:37:56.596Z,8.20
2022-08-19T00:40:25.907Z,7.30
2022-08-19T00:42:54.503Z,7.60
2022-08-19T00:45:26.853Z,8.80
2022-08-19T00:47:55.268Z,8.50
2022-08-19T00:50:25.232Z,7.90
2022-08-19T00:52:54.145Z,8.10
2022-08-19T00:55:25.098Z,8.30
2022-08-19T00:57:58.958Z,8.30
2022-08-19T01:00:28.741Z,8.70
2022-08-19T01:02:57.376Z,9.90
2022-08-19T01:05:29.982Z,8.30
2022-08-19T01:08:01.734Z,8.60
2022-08-19T01:10:36.781Z,8.30
2022-08-19T01:13:06.207Z,9.10
2022-08-19T01:15:42.731Z,8.70
2022-08-19T01:18:13.706Z,8.80
2022-08-19T01:20:43.285Z,8.70
2022-08-19T01:23:12.710Z,8.80
2022-08-19T01:25:46.200Z,9.50
2022-08-19T01:28:33.631Z,9.20
2022-08-19T01:31:11.877Z,9.40
2022-08-19T01:33:58.154Z,8.50
2022-08-19T01:36:32.539Z,9.10
2022-08-19T01:39:03.296Z,9.30
2022-08-19T01:41:31.644Z,9.00
2022-08-19T01:44:13.644Z,9.60
2022-08-19T01:46:48.719Z,9.00
2022-08-19T01:49:19.559Z,9.90
2022-08-19T01:51:49.849Z,9.10
2022-08-19T01:54:23.107Z,9.90
2022-08-19T01:57:00.205Z,10.20
2022-08-19T01:59:29.204Z,9.70
2022-08-19T02:01:57.696Z,9.50
2022-08-19T02:04:27.536Z,9.90
2022-08-19T02:06:55.892Z,9.70
2022-08-19T02:09:24.556Z,8.80
2022-08-19T02:11:53.790Z,9.60
2022-08-19T02:14:22.149Z,9.40
2022-08-19T02:16:50.885Z,8.40
2022-08-19T02:19:19.241Z,9.40
2022-08-19T02:21:48.256Z,9.30
2022-08-19T02:24:16.566Z,9.20
2022-08-19T02:26:44.895Z,9.30
2022-08-19T02:29:13.229Z,9.50
2022-08-19T02:31:41.644Z,9.50
2022-08-19T02:34:10.196Z,9.60
2022-08-19T02:36:42.406Z,9.50
2022-08-19T02:39:11.209Z,9.30
2022-08-19T02:41:39.853Z,9.70
2022-08-19T02:44:29.565Z,10.20
2022-08-19T02:46:56.611Z,9.30
2022-08-19T02:49:25.022Z,10.20
2022-08-19T02:51:53.456Z,9.40
2022-08-19T02:54:21.907Z,9.40
2022-08-19T02:56:51.132Z,10.60
2022-08-19T02:59:21.132Z,10.00
2022-08-19T03:01:51.690Z,8.80
2022-08-19T03:04:20.687Z,9.70
2022-08-19T03:06:49.726Z,9.10
2022-08-19T03:09:19.979Z,9.20
2022-08-19T03:11:48.703Z,8.80
2022-08-19T03:14:21.198Z,9.50
2022-08-19T03:16:52.793Z,9.50
2022-08-19T03:19:22.028Z,10.80
2022-08-19T03:21:50.998Z,10.30
2022-08-19T03:24:20.749Z,9.10
2022-08-19T03:26:51.691Z,9.90
2022-08-19T03:29:30.370Z,9.00
2022-08-19T03:32:01.435Z,9.70
2022-08-19T03:34:32.949Z,9.90
2022-08-19T03:37:06.447Z,10.40
2022-08-19T03:39:36.737Z,9.20
2022-08-19T03:42:38.545Z,10.30
2022-08-19T03:44:54.416Z,10.30
2022-08-19T03:47:22.784Z,9.20
2022-08-19T03:49:51.282Z,10.30
2022-08-19T03:52:20.152Z,10.20
2022-08-19T03:54:48.615Z,9.80
2022-08-19T03:57:16.948Z,9.70
2022-08-19T03:59:45.425Z,9.40
2022-08-19T04:02:14.081Z,10.50
2022-08-19T04:04:43.890Z,10.20
2022-08-19T04:07:16.048Z,9.90
2022-08-19T04:09:44.729Z,9.70
2022-08-19T04:12:13.463Z,9.80
2022-08-19T04:14:42.299Z,9.20
2022-08-19T04:17:13.290Z,9.60
2022-08-19T04:19:43.235Z,10.30
2022-08-19T04:22:11.987Z,9.60
2022-08-19T04:24:40.861Z,9.30
2022-08-19T04:27:09.409Z,9.30
2022-08-19T04:29:39.934Z,9.50
2022-08-19T04:32:09.814Z,10.10
2022-08-19T04:35:15.805Z,9.20
2022-08-19T04:37:34.693Z,9.80
2022-08-19T04:40:26.486Z,9.70
2022-08-19T04:42:55.231Z,9.50
2022-08-19T04:45:23.968Z,10.20
2022-08-19T04:47:58.901Z,9.70
2022-08-19T04:50:46.101Z,9.20
2022-08-19T04:53:14.564Z,10.80
2022-08-19T04:55:43.649Z,8.90
2022-08-19T04:58:12.113Z,9.80
2022-08-19T05:00:41.217Z,9.40
2022-08-19T05:03:10.681Z,9.10
2022-08-19T05:05:45.157Z,9.80
2022-08-19T05:08:18.884Z,9.30
2022-08-19T05:11:00.183Z,9.70
2022-08-19T05:13:28.813Z,8.40
2022-08-19T05:15:58.646Z,9.40
2022-08-19T05:18:46.524Z,8.80
2022-08-19T05:21:36.623Z,8.70
2022-08-19T05:24:09.270Z,8.00
2022-08-19T05:26:37.976Z,8.20
2022-08-19T05:29:07.779Z,8.90
2022-08-19T05:31:39.173Z,8.30
2022-08-19T05:34:18.568Z,8.40
2022-08-19T05:36:51.634Z,7.90
2022-08-19T05:39:21.909Z,8.30
2022-08-19T05:41:52.987Z,8.60
2022-08-19T05:44:22.526Z,8.60
2022-08-19T05:46:53.242Z,8.50
2022-08-19T05:49:23.447Z,8.50
2022-08-19T05:51:51.994Z,8.00
2022-08-19T05:54:20.573Z,8.20
2022-08-19T05:56:49.549Z,8.50
2022-08-19T05:59:22.024Z,8.50
2022-08-19T06:01:56.014Z,7.40
2022-08-19T06:04:25.724Z,7.60
2022-08-19T06:06:56.664Z,7.70
2022-08-19T06:09:25.187Z,7.80
2022-08-19T06:11:56.283Z,7.50
2022-08-19T06:14:27.778Z,7.80
2022-08-19T06:16:57.023Z,7.80
2022-08-19T06:19:25.881Z,7.10
2022-08-19T06:21:54.499Z,7.40
2022-08-19T06:24:24.988Z,7.80
2022-08-19T06:26:59.192Z,7.50
2022-08-19T06:29:31.803Z,8.20
2022-08-19T06:32:01.714Z,7.30
2022-08-19T06:34:32.921Z,7.40
2022-08-19T06:37:06.129Z,7.70
2022-08-19T06:39:38.985Z,8.70
2022-08-19T06:42:11.791Z,7.70
2022-08-19T06:44:43.676Z,7.20
2022-08-19T06:47:23.885Z,7.70
2022-08-19T06:50:02.854Z,7.70
2022-08-19T06:52:34.113Z,7.50
2022-08-19T06:55:06.197Z,7.10
2022-08-19T06:57:35.566Z,7.50
2022-08-19T07:00:12.288Z,7.40
2022-08-19T07:02:42.624Z,7.70
2022-08-19T07:05:12.096Z,6.80
2022-08-19T07:07:43.513Z,6.70
2022-08-19T07:10:16.369Z,6.60
2022-08-19T07:12:45.637Z,7.00
2022-08-19T07:15:16.016Z,7.30
2022-08-19T07:17:44.655Z,7.20
2022-08-19T07:20:16.797Z,7.70
2022-08-19T07:22:47.842Z,7.70
2022-08-19T07:25:18.301Z,7.20
2022-08-19T07:27:48.773Z,7.40
2022-08-19T07:30:26.436Z,6.60
2022-08-19T07:32:56.918Z,7.00
2022-08-19T07:35:25.728Z,7.00
2022-08-19T07:37:54.766Z,7.10
2022-08-19T07:40:24.815Z,7.00
2022-08-19T07:42:53.258Z,7.80
2022-08-19T07:45:21.877Z,8.10
2022-08-19T07:47:51.300Z,8.00
2022-08-19T07:50:22.292Z,6.90
2022-08-19T07:52:51.478Z,6.80
2022-08-19T07:55:41.202Z,7.20
2022-08-19T07:58:15.507Z,7.10
2022-08-19T08:00:46.412Z,7.40
2022-08-19T08:03:16.508Z,7.30
2022-08-19T08:06:03.727Z,7.70
2022-08-19T08:08:50.816Z,7.30
2022-08-19T08:11:21.783Z,8.20
2022-08-19T08:14:00.995Z,7.50
2022-08-19T08:16:39.771Z,7.20
2022-08-19T08:19:22.948Z,8.00
2022-08-19T08:21:55.676Z,7.30
2022-08-19T08:24:28.254Z,7.80
2022-08-19T08:26:59.876Z,7.60
2022-08-19T08:29:34.766Z,8.10
2022-08-19T08:32:14.843Z,7.30
2022-08-19T08:34:44.552Z,7.60
2022-08-19T08:37:16.012Z,7.40
2022-08-19T08:39:44.784Z,7.70
2022-08-19T08:42:21.234Z,7.90
2022-08-19T08:47:38.150Z,7.70
2022-08-19T08:50:16.751Z,7.40
2022-08-19T08:52:48.485Z,7.50
2022-08-19T08:55:20.318Z,7.40
2022-08-19T08:58:00.286Z,7.90
2022-08-19T09:00:31.325Z,7.90
2022-08-19T09:03:02.203Z,7.90
2022-08-19T09:05:48.646Z,8.40
2022-08-19T09:08:32.221Z,8.40
2022-08-19T09:11:05.439Z,8.00
2022-08-19T09:13:42.363Z,8.00
2022-08-19T09:16:15.926Z,8.20
2022-08-19T09:18:47.375Z,8.30
2022-08-19T09:21:16.610Z,7.90
2022-08-19T09:23:45.820Z,8.20
2022-08-19T09:26:22.335Z,8.20
2022-08-19T09:28:54.865Z,7.50
2022-08-19T09:31:28.621Z,7.70
2022-08-19T09:33:57.750Z,6.40
2022-08-19T09:36:34.565Z,6.70
2022-08-19T09:39:04.362Z,6.50
2022-08-19T09:41:47.679Z,7.20
2022-08-19T09:44:18.105Z,6.80
2022-08-19T09:46:47.766Z,7.80
2022-08-19T09:49:17.908Z,6.40
2022-08-19T09:51:51.153Z,7.10
2022-08-19T09:54:23.646Z,6.70
2022-08-19T09:56:57.203Z,7.20
2022-08-19T10:00:04.900Z,7.00
2022-08-19T10:02:36.427Z,6.90
2022-08-19T10:05:26.957Z,7.10
2022-08-19T10:07:55.635Z,6.90
2022-08-19T10:10:25.325Z,6.40
2022-08-19T10:12:55.465Z,7.40
2022-08-19T10:15:29.050Z,7.30
2022-08-19T10:17:59.671Z,6.90
2022-08-19T10:20:30.560Z,7.40
2022-08-19T10:22:59.695Z,7.30
2022-08-19T10:25:28.201Z,6.60
2022-08-19T10:27:58.093Z,6.90
2022-08-19T10:30:26.469Z,6.80
2022-08-19T10:32:54.778Z,6.40
2022-08-19T10:35:25.277Z,6.50
2022-08-19T10:38:00.263Z,7.00
2022-08-19T10:40:30.645Z,7.60
2022-08-19T10:42:59.189Z,6.60
2022-08-19T10:45:28.291Z,6.90
2022-08-19T10:47:57.208Z,6.60
2022-08-19T10:50:45.487Z,7.70
2022-08-19T10:53:14.731Z,6.90
2022-08-19T10:56:04.047Z,6.80
2022-08-19T10:58:32.803Z,6.80
2022-08-19T11:01:01.257Z,7.00
2022-08-19T11:03:30.616Z,6.30
2022-08-19T11:06:03.618Z,7.20
2022-08-19T11:08:35.167Z,8.00
2022-08-19T11:11:05.127Z,6.60
2022-08-19T11:13:37.880Z,7.00
2022-08-19T11:16:08.945Z,6.80
2022-08-19T11:18:39.721Z,6.60
2022-08-19T11:21:11.008Z,7.10
2022-08-19T11:23:39.472Z,6.70
2022-08-19T11:26:08.072Z,5.90
2022-08-19T11:28:36.702Z,7.20
2022-08-19T11:31:05.425Z,6.60
2022-08-19T11:33:34.134Z,6.80
2022-08-19T11:36:02.933Z,6.30
2022-08-19T11:38:31.314Z,6.40
2022-08-19T11:41:01.948Z,6.20
2022-08-19T11:43:34.383Z,6.90
2022-08-19T11:46:07.623Z,6.90
2022-08-19T11:48:36.357Z,6.80
2022-08-19T11:51:09.172Z,7.10
2022-08-19T11:53:38.673Z,6.70
2022-08-19T11:56:09.056Z,6.60
2022-08-19T11:58:38.031Z,7.10
2022-08-19T12:01:08.593Z,7.20
2022-08-19T12:03:38.552Z,6.30
2022-08-19T12:06:10.563Z,6.30
2022-08-19T12:08:38.940Z,6.60
2022-08-19T12:11:08.403Z,6.50
2022-08-19T12:13:37.345Z,6.40
2022-08-19T12:16:11.854Z,6.50
2022-08-19T12:21:11.451Z,6.30
2022-08-19T12:23:39.904Z,6.00
2022-08-19T12:26:09.855Z,6.30
2022-08-19T12:28:38.842Z,6.10
2022-08-19T12:31:08.361Z,6.20
2022-08-19T12:33:36.738Z,6.30
2022-08-19T12:36:08.337Z,5.90
2022-08-19T12:38:37.679Z,6.80
2022-08-19T12:41:07.912Z,6.50
2022-08-19T12:43:36.919Z,6.80
2022-08-19T12:46:06.239Z,5.70
2022-08-19T12:48:35.372Z,6.10
2022-08-19T12:51:08.832Z,6.20
2022-08-19T12:53:39.066Z,6.10
2022-08-19T12:56:11.495Z,6.50
2022-08-19T12:58:42.133Z,6.60
2022-08-19T13:01:20.360Z,6.40
2022-08-19T13:03:53.219Z,6.20
2022-08-19T13:06:22.142Z,6.40
2022-08-19T13:08:50.824Z,6.20
2022-08-19T13:11:21.327Z,6.30
2022-08-19T13:13:51.613Z,5.40
2022-08-19T13:16:22.259Z,5.30
2022-08-19T13:18:52.548Z,6.20
2022-08-19T13:21:23.694Z,6.10
2022-08-19T13:23:52.796Z,5.50
2022-08-19T13:26:21.666Z,5.90
2022-08-19T13:29:08.921Z,6.50
2022-08-19T13:31:58.855Z,6.20
2022-08-19T13:34:34.333Z,5.40
2022-08-19T13:37:04.659Z,6.40
2022-08-19T13:39:34.783Z,6.70
2022-08-19T13:42:05.104Z,5.60
2022-08-19T13:44:33.888Z,6.30
2022-08-19T13:47:07.192Z,5.50
2022-08-19T13:49:36.684Z,6.30
2022-08-19T13:52:06.646Z,5.70
2022-08-19T13:54:35.307Z,6.70
2022-08-19T13:57:03.931Z,6.30
2022-08-19T13:59:32.871Z,7.40
2022-08-19T14:02:01.655Z,6.50
2022-08-19T14:04:30.024Z,6.00
2022-08-19T14:06:58.498Z,6.30
2022-08-19T14:09:27.275Z,5.40
2022-08-19T14:11:55.896Z,5.60
2022-08-19T14:14:24.473Z,5.80
2022-08-19T14:16:53.138Z,5.90
2022-08-19T14:19:21.712Z,5.80
2022-08-19T14:21:50.169Z,5.90
2022-08-19T14:24:18.545Z,5.50
2022-08-19T14:26:46.933Z,6.20
2022-08-19T14:29:15.385Z,5.90
2022-08-19T14:31:44.389Z,5.80
2022-08-19T14:34:13.102Z,5.40
2022-08-19T14:36:42.357Z,5.30
2022-08-19T14:39:11.966Z,5.30
2022-08-19T14:41:42.224Z,5.70
2022-08-19T14:44:12.763Z,5.90
2022-08-19T14:46:41.713Z,5.70
2022-08-19T14:49:18.820Z,6.00
2022-08-19T14:51:48.034Z,5.20
2022-08-19T14:54:16.724Z,5.10
2022-08-19T14:56:45.673Z,6.20
2022-08-19T14:59:14.382Z,5.60
2022-08-19T15:01:43.454Z,5.90
2022-08-19T15:04:12.581Z,5.40
2022-08-19T15:06:42.792Z,5.60
2022-08-19T15:09:11.491Z,4.80
2022-08-19T15:11:39.836Z,5.00
2022-08-19T15:14:08.263Z,5.10
2022-08-19T15:16:42.035Z,5.10
2022-08-19T15:19:12.169Z,5.00
2022-08-19T15:21:40.613Z,7.60
2022-08-19T15:24:09.754Z,5.20
2022-08-19T15:26:38.174Z,5.30
2022-08-19T15:29:06.658Z,5.10
2022-08-19T15:31:36.114Z,5.10
2022-08-19T15:34:07.360Z,4.90
2022-08-19T15:36:36.389Z,4.60
2022-08-19T15:39:06.725Z,4.60
2022-08-19T15:41:36.973Z,5.50
2022-08-19T15:44:10.252Z,4.80
2022-08-19T15:46:41.937Z,4.70
2022-08-19T15:49:12.099Z,4.50
2022-08-19T15:51:42.501Z,5.00
2022-08-19T15:54:14.377Z,4.80
2022-08-19T15:57:00.746Z,5.20
2022-08-19T15:59:47.870Z,5.50
2022-08-19T16:02:37.225Z,5.10
2022-08-19T16:05:27.345Z,5.10
2022-08-19T16:07:56.380Z,4.90
2022-08-19T16:10:27.120Z,4.90
2022-08-19T16:12:57.215Z,4.70
2022-08-19T16:15:27.361Z,4.70
2022-08-19T16:17:57.213Z,5.70
2022-08-19T16:20:27.294Z,5.10
2022-08-19T16:22:57.827Z,4.90
2022-08-19T16:25:28.909Z,5.00
2022-08-19T16:28:07.482Z,4.80
2022-08-19T16:30:39.092Z,5.00
2022-08-19T16:33:10.494Z,5.10
2022-08-19T16:35:39.091Z,5.10
2022-08-19T16:38:07.521Z,5.30
2022-08-19T16:40:36.229Z,5.40
2022-08-19T16:43:04.978Z,5.10
2022-08-19T16:45:33.375Z,5.60
2022-08-19T16:48:01.826Z,4.40
2022-08-19T16:50:48.381Z,4.90
2022-08-19T16:53:20.645Z,4.90
2022-08-19T16:55:50.276Z,4.70
2022-08-19T16:58:19.244Z,4.70
2022-08-19T17:00:49.415Z,4.90
2022-08-19T17:03:19.098Z,5.20
2022-08-19T17:05:49.687Z,5.20
2022-08-19T17:08:18.886Z,5.30
2022-08-19T17:11:14.712Z,5.00
2022-08-19T17:13:38.311Z,4.80
2022-08-19T17:16:07.465Z,4.70
2022-08-19T17:18:35.913Z,4.70
2022-08-19T17:21:04.573Z,4.20
2022-08-19T17:23:42.925Z,5.00
2022-08-19T17:26:16.936Z,5.10
2022-08-19T17:28:48.791Z,5.40
2022-08-19T17:31:18.432Z,5.40
2022-08-19T17:33:48.356Z,5.40
2022-08-19T17:36:18.584Z,5.20
2022-08-19T17:38:47.154Z,4.80
2022-08-19T17:41:15.893Z,6.30
2022-08-19T17:43:44.504Z,6.20
2022-08-19T17:46:18.170Z,6.30
2022-08-19T17:48:52.732Z,6.70
2022-08-19T17:51:24.698Z,5.10
2022-08-19T17:53:54.526Z,4.70
2022-08-19T17:56:23.328Z,5.20
2022-08-19T17:58:59.978Z,7.60
2022-08-19T18:01:51.798Z,6.20
2022-08-19T18:04:19.607Z,4.90
2022-08-19T18:06:53.588Z,5.40
2022-08-19T18:09:25.697Z,5.10
2022-08-19T18:11:56.784Z,5.10
2022-08-19T18:14:32.964Z,4.20
2022-08-19T18:17:08.381Z,5.30
2022-08-19T18:22:13.346Z,5.00
2022-08-19T18:24:42.339Z,5.30
2022-08-19T18:27:10.674Z,5.70
2022-08-19T18:29:39.750Z,5.20
2022-08-19T18:32:11.961Z,5.20
2022-08-19T18:34:42.401Z,5.80
2022-08-19T18:37:11.345Z,6.20
2022-08-19T18:39:57.957Z,6.00
2022-08-19T18:42:44.823Z,4.90
2022-08-19T18:45:32.073Z,6.20
2022-08-19T18:48:27.381Z,5.80
2022-08-19T18:50:58.526Z,5.70
2022-08-19T18:53:29.268Z,5.30
2022-08-19T18:55:59.059Z,5.10
2022-08-19T18:58:31.550Z,4.90
2022-08-19T19:01:02.554Z,4.90
2022-08-19T19:03:31.011Z,5.30
2022-08-19T19:05:59.439Z,5.10
2022-08-19T19:08:27.974Z,5.00
2022-08-19T19:10:58.338Z,5.50
2022-08-19T19:13:28.132Z,5.40
2022-08-19T19:15:56.743Z,5.30
2022-08-19T19:18:25.416Z,6.20
2022-08-19T19:20:54.563Z,6.10
2022-08-19T19:23:23.454Z,5.40
2022-08-19T19:25:52.359Z,5.30
2022-08-19T19:28:24.674Z,5.20
2022-08-19T19:30:57.913Z,4.80
2022-08-19T19:33:27.014Z,5.30
2022-08-19T19:35:55.653Z,4.90
2022-08-19T19:38:23.993Z,5.10
2022-08-19T19:40:52.401Z,5.30
2022-08-19T19:43:21.223Z,5.00
2022-08-19T19:45:51.450Z,4.80
2022-08-19T19:48:20.040Z,5.10
2022-08-19T19:50:54.159Z,4.80
2022-08-19T19:53:27.015Z,5.20
2022-08-19T19:55:58.205Z,4.70
2022-08-19T19:58:29.130Z,4.50
2022-08-19T20:01:02.039Z,4.80
2022-08-19T20:03:39.441Z,5.20
2022-08-19T20:06:09.822Z,4.80
2022-08-19T20:08:56.757Z,5.20
2022-08-19T20:11:32.515Z,4.30
2022-08-19T20:14:04.484Z,6.00
2022-08-19T20:16:34.031Z,4.90
2022-08-19T20:19:03.458Z,4.60
2022-08-19T20:21:31.954Z,5.20
2022-08-19T20:24:08.773Z,5.30
2022-08-19T20:26:38.166Z,4.20
2022-08-19T20:29:13.809Z,5.30
2022-08-19T20:31:57.958Z,5.20
2022-08-19T20:34:28.739Z,5.20
2022-08-19T20:36:57.174Z,5.20
2022-08-19T20:39:25.687Z,5.70
2022-08-19T20:41:55.760Z,5.00
2022-08-19T20:44:24.674Z,5.00
2022-08-19T20:46:54.225Z,5.00
2022-08-19T20:49:27.121Z,4.60
2022-08-19T20:51:56.380Z,4.30
2022-08-19T20:54:25.384Z,5.70
2022-08-19T20:56:54.247Z,5.10
2022-08-19T20:59:25.279Z,4.90
2022-08-19T21:01:53.903Z,4.90
2022-08-19T21:04:22.418Z,4.80
2022-08-19T21:06:51.337Z,5.30
2022-08-19T21:09:19.812Z,5.30
2022-08-19T21:11:48.667Z,5.00
2022-08-19T21:14:17.899Z,5.10
2022-08-19T21:16:46.732Z,4.90
2022-08-19T21:19:16.312Z,4.80
2022-08-19T21:21:44.744Z,4.90
2022-08-19T21:24:13.408Z,4.30
2022-08-19T21:26:41.991Z,4.80
2022-08-19T21:29:10.504Z,5.20
2022-08-19T21:31:38.937Z,5.00
2022-08-19T21:34:07.458Z,5.30
2022-08-19T21:36:36.286Z,4.60
2022-08-19T21:39:05.433Z,4.80
2022-08-19T21:41:33.845Z,4.30
2022-08-19T21:44:02.469Z,4.70
2022-08-19T21:46:32.418Z,5.00
2022-08-19T21:49:01.402Z,5.60
2022-08-19T21:51:30.375Z,4.90
2022-08-19T21:53:58.768Z,5.20
2022-08-19T21:56:27.264Z,4.40
2022-08-19T21:58:56.042Z,4.90
2022-08-19T22:01:24.485Z,5.10
2022-08-19T22:03:53.452Z,4.20
2022-08-19T22:06:22.486Z,5.20
2022-08-19T22:08:50.969Z,4.90
2022-08-19T22:11:19.466Z,4.40
2022-08-19T22:13:47.861Z,4.70
2022-08-19T22:16:17.525Z,4.70
2022-08-19T22:18:46.529Z,4.70
2022-08-19T22:21:15.366Z,4.80
2022-08-19T22:26:18.439Z,4.40
2022-08-19T22:28:46.938Z,5.00
2022-08-19T22:31:15.851Z,4.90
2022-08-19T22:33:44.588Z,4.20
2022-08-19T22:36:13.539Z,5.00
2022-08-19T22:38:41.957Z,4.40
2022-08-19T22:41:11.362Z,4.50
2022-08-19T22:43:39.851Z,4.20
2022-08-19T22:46:17.383Z,4.30
2022-08-19T22:48:47.303Z,4.90
2022-08-19T22:51:34.752Z,4.30
2022-08-19T22:54:04.355Z,4.20
2022-08-19T22:56:34.239Z,4.80
2022-08-19T22:59:03.245Z,4.40
2022-08-19T23:01:32.136Z,4.00
2022-08-19T23:04:03.764Z,4.80
2022-08-19T23:06:34.112Z,4.50
2022-08-19T23:09:06.545Z,4.30
2022-08-19T23:11:38.247Z,4.40
2022-08-19T23:16:38.324Z,4.90
2022-08-19T23:19:08.544Z,5.50
2022-08-19T23:21:36.968Z,4.70
2022-08-19T23:24:06.782Z,4.60
2022-08-19T23:26:36.094Z,4.20
2022-08-19T23:29:23.676Z,4.70
2022-08-19T23:31:52.270Z,4.20
2022-08-19T23:34:20.697Z,5.00
2022-08-19T23:36:50.080Z,5.30
2022-08-19T23:39:18.870Z,4.80
2022-08-19T23:41:47.368Z,5.00
2022-08-19T23:44:16.606Z,5.30
2022-08-19T23:46:55.092Z,5.40
2022-08-19T23:49:25.641Z,4.80
2022-08-19T23:51:55.376Z,4.90
2022-08-19T23:54:34.395Z,4.70
2022-08-19T23:57:13.406Z,5.20
2022-08-19T23:59:44.944Z,4.90
